createdAt,value
2022-11-17T00:00:42.295Z,11.30
2022-11-17T00:03:13.659Z,11.30
2022-11-17T00:05:40.453Z,11.30
2022-11-17T00:08:07.588Z,11.40
2022-11-17T00:10:34.481Z,11.30
2022-11-17T00:13:19.718Z,11.40
2022-11-17T00:15:46.737Z,11.40
2022-11-17T00:18:32.067Z,11.40
2022-11-17T00:21:17.520Z,11.30
2022-11-17T00:23:47.415Z,11.40
2022-11-17T00:26:34.138Z,11.40
2022-11-17T00:29:02.789Z,11.40
2022-11-17T00:31:51.886Z,11.50
2022-11-17T00:34:23.269Z,11.40
2022-11-17T00:36:54.305Z,11.50
2022-11-17T00:39:22.254Z,11.50
2022-11-17T00:41:49.143Z,11.50
2022-11-17T00:44:16.096Z,11.50
2022-11-17T00:46:46.426Z,11.50
2022-11-17T00:49:16.591Z,11.50
2022-11-17T00:51:43.509Z,11.50
2022-11-17T00:54:11.682Z,11.50
2022-11-17T00:56:39.292Z,11.50
2022-11-17T00:59:06.874Z,11.60
2022-11-17T01:01:34.421Z,11.60
2022-11-17T01:04:04.686Z,11.60
2022-11-17T01:06:35.832Z,11.60
2022-11-17T01:09:04.813Z,11.60
2022-11-17T01:11:31.771Z,11.60
2022-11-17T01:13:59.523Z,11.70
2022-11-17T01:16:26.573Z,11.70
2022-11-17T01:18:54.588Z,11.70
2022-11-17T01:21:25.643Z,11.70
2022-11-17T01:23:55.607Z,11.70
2022-11-17T01:26:27.793Z,11.70
2022-11-17T01:28:58.160Z,11.70
2022-11-17T01:31:27.544Z,11.70
2022-11-17T01:33:54.686Z,11.70
2022-11-17T01:36:27.577Z,11.70
2022-11-17T01:38:54.597Z,11.70
2022-11-17T01:41:22.506Z,11.70
2022-11-17T01:44:13.284Z,11.60
2022-11-17T01:46:40.298Z,11.70
2022-11-17T01:49:12.037Z,11.60
2022-11-17T01:51:44.083Z,11.60
2022-11-17T01:54:11.459Z,11.60
2022-11-17T01:56:40.301Z,11.60
2022-11-17T01:59:10.776Z,11.60
2022-11-17T02:01:55.710Z,11.50
2022-11-17T02:04:29.586Z,11.50
2022-11-17T02:07:17.926Z,11.50
2022-11-17T02:09:45.387Z,11.50
2022-11-17T02:12:13.865Z,11.50
2022-11-17T02:14:40.858Z,11.40
2022-11-17T02:17:13.677Z,11.40
2022-11-17T02:19:42.794Z,11.30
2022-11-17T02:22:47.374Z,11.30
2022-11-17T02:25:35.390Z,11.30
2022-11-17T02:28:13.127Z,11.30
2022-11-17T02:30:51.887Z,11.30
2022-11-17T02:33:53.838Z,11.30
2022-11-17T02:36:33.406Z,11.20
2022-11-17T02:39:00.067Z,11.10
2022-11-17T02:41:31.494Z,11.00
2022-11-17T02:44:10.228Z,10.90
2022-11-17T02:46:48.853Z,10.80
2022-11-17T02:49:24.463Z,10.70
2022-11-17T02:51:53.579Z,10.60
2022-11-17T02:54:23.672Z,10.50
2022-11-17T02:56:53.576Z,10.40
2022-11-17T02:59:53.592Z,10.20
2022-11-17T03:02:47.919Z,10.10
2022-11-17T03:05:33.989Z,9.90
2022-11-17T03:08:03.940Z,9.80
2022-11-17T03:11:03.641Z,9.70
2022-11-17T03:13:52.306Z,9.60
2022-11-17T03:16:31.281Z,9.50
2022-11-17T03:19:34.400Z,9.50
2022-11-17T03:22:18.167Z,9.40
2022-11-17T03:24:54.486Z,9.30
2022-11-17T03:27:26.038Z,9.20
2022-11-17T03:29:58.552Z,9.20
2022-11-17T03:32:25.491Z,9.20
2022-11-17T03:35:00.225Z,9.20
2022-11-17T03:37:28.673Z,9.10
2022-11-17T03:39:58.004Z,9.10
2022-11-17T03:42:26.390Z,9.10
2022-11-17T03:45:17.863Z,9.10
2022-11-17T03:47:45.111Z,9.10
2022-11-17T03:50:21.929Z,9.10
2022-11-17T03:52:49.176Z,9.10
2022-11-17T03:55:16.107Z,9.00
2022-11-17T03:57:56.920Z,9.00
2022-11-17T04:00:25.340Z,9.00
2022-11-17T04:02:55.156Z,9.00
2022-11-17T04:05:24.511Z,9.00
2022-11-17T04:07:52.697Z,8.90
2022-11-17T04:10:25.914Z,9.00
2022-11-17T04:13:13.150Z,8.90
2022-11-17T04:15:59.269Z,8.90
2022-11-17T04:18:41.869Z,8.90
2022-11-17T04:21:13.710Z,8.90
2022-11-17T04:23:44.132Z,8.80
2022-11-17T04:26:31.795Z,8.80
2022-11-17T04:28:58.733Z,8.80
2022-11-17T04:31:27.206Z,8.80
2022-11-17T04:33:54.922Z,8.70
2022-11-17T04:36:26.275Z,8.70
2022-11-17T04:38:54.921Z,8.70
2022-11-17T04:41:44.209Z,8.70
2022-11-17T04:44:12.374Z,8.70
2022-11-17T04:46:40.102Z,8.70
2022-11-17T04:49:07.344Z,8.70
2022-11-17T04:51:35.304Z,8.70
2022-11-17T04:54:02.434Z,8.70
2022-11-17T04:56:29.616Z,8.70
2022-11-17T04:58:56.918Z,8.60
2022-11-17T05:01:24.182Z,8.70
2022-11-17T05:03:52.609Z,8.70
2022-11-17T05:06:25.760Z,8.70
2022-11-17T05:08:56.280Z,8.70
2022-11-17T05:11:43.387Z,8.70
2022-11-17T05:14:10.286Z,8.70
2022-11-17T05:16:56.399Z,8.70
2022-11-17T05:19:24.974Z,8.70
2022-11-17T05:21:51.861Z,8.70
2022-11-17T05:24:21.492Z,8.70
2022-11-17T05:26:49.216Z,8.70
2022-11-17T05:29:20.819Z,8.60
2022-11-17T05:31:50.090Z,8.60
2022-11-17T05:34:17.955Z,8.70
2022-11-17T05:36:45.623Z,8.70
2022-11-17T05:39:16.432Z,8.70
2022-11-17T05:41:46.392Z,8.60
2022-11-17T05:44:15.416Z,8.60
2022-11-17T05:46:46.107Z,8.60
2022-11-17T05:49:13.053Z,8.60
2022-11-17T05:51:40.104Z,8.60
2022-11-17T05:54:07.230Z,8.60
2022-11-17T05:56:38.987Z,8.50
2022-11-17T05:59:27.284Z,8.60
2022-11-17T06:01:59.038Z,8.50
2022-11-17T06:04:25.917Z,8.50
2022-11-17T06:06:52.803Z,8.50
2022-11-17T06:09:20.345Z,8.50
2022-11-17T06:11:47.215Z,8.50
2022-11-17T06:14:14.117Z,8.50
2022-11-17T06:16:42.936Z,8.50
2022-11-17T06:19:13.002Z,8.40
2022-11-17T06:22:09.940Z,8.40
2022-11-17T06:24:27.122Z,8.40
2022-11-17T06:26:54.245Z,8.30
2022-11-17T06:29:21.049Z,8.40
2022-11-17T06:31:48.576Z,8.30
2022-11-17T06:34:15.431Z,8.30
2022-11-17T06:36:42.497Z,8.30
2022-11-17T06:39:09.502Z,8.30
2022-11-17T06:41:36.817Z,8.30
2022-11-17T06:44:03.705Z,8.30
2022-11-17T06:46:38.035Z,8.30
2022-11-17T06:49:08.006Z,8.30
2022-11-17T06:51:37.967Z,8.30
2022-11-17T06:54:09.756Z,8.30
2022-11-17T06:56:36.713Z,8.30
2022-11-17T06:59:06.426Z,8.30
2022-11-17T07:01:33.427Z,8.30
2022-11-17T07:04:00.303Z,8.30
2022-11-17T07:06:27.300Z,8.30
2022-11-17T07:08:54.836Z,8.30
2022-11-17T07:11:22.273Z,8.30
2022-11-17T07:13:49.128Z,8.20
2022-11-17T07:16:22.863Z,8.20
2022-11-17T07:18:50.686Z,8.20
2022-11-17T07:21:18.107Z,8.30
2022-11-17T07:23:45.771Z,8.30
2022-11-17T07:26:12.799Z,8.30
2022-11-17T07:28:40.041Z,8.20
2022-11-17T07:31:08.218Z,8.20
2022-11-17T07:33:35.281Z,8.30
2022-11-17T07:36:04.224Z,8.20
2022-11-17T07:38:33.244Z,8.20
2022-11-17T07:41:00.826Z,8.20
2022-11-17T07:43:29.124Z,8.30
2022-11-17T07:45:56.050Z,8.20
2022-11-17T07:48:22.958Z,8.30
2022-11-17T07:50:49.745Z,8.20
2022-11-17T07:53:17.151Z,8.20
2022-11-17T07:55:44.080Z,8.20
2022-11-17T07:58:10.907Z,8.20
2022-11-17T08:00:38.039Z,8.20
2022-11-17T08:03:05.019Z,8.20
2022-11-17T08:05:41.723Z,8.20
2022-11-17T08:08:10.892Z,8.20
2022-11-17T08:10:37.789Z,8.20
2022-11-17T08:13:06.346Z,8.30
2022-11-17T08:15:33.197Z,8.30
2022-11-17T08:18:01.026Z,8.30
2022-11-17T08:20:29.289Z,8.30
2022-11-17T08:22:56.239Z,8.30
2022-11-17T08:25:24.204Z,8.30
2022-11-17T08:27:53.877Z,8.30
2022-11-17T08:30:21.147Z,8.30
2022-11-17T08:33:11.826Z,8.30
2022-11-17T08:35:39.264Z,8.40
2022-11-17T08:38:06.202Z,8.30
2022-11-17T08:40:33.448Z,8.30
2022-11-17T08:43:01.539Z,8.30
2022-11-17T08:45:29.180Z,8.40
2022-11-17T08:47:56.703Z,8.40
2022-11-17T08:50:23.558Z,8.40
2022-11-17T08:52:51.547Z,8.40
2022-11-17T08:55:18.522Z,8.40
2022-11-17T08:57:46.307Z,8.50
2022-11-17T09:00:14.873Z,8.50
2022-11-17T09:02:41.726Z,8.50
2022-11-17T09:05:08.907Z,8.50
2022-11-17T09:07:35.843Z,8.50
2022-11-17T09:10:03.821Z,8.50
2022-11-17T09:12:30.621Z,8.50
2022-11-17T09:14:57.562Z,8.50
2022-11-17T09:17:24.393Z,8.50
2022-11-17T09:19:51.848Z,8.50
2022-11-17T09:22:19.847Z,8.60
2022-11-17T09:24:49.103Z,8.60
2022-11-17T09:27:16.069Z,8.70
2022-11-17T09:29:42.828Z,8.70
2022-11-17T09:32:10.013Z,8.70
2022-11-17T09:34:36.913Z,8.80
2022-11-17T09:37:04.117Z,8.80
2022-11-17T09:39:31.109Z,8.80
2022-11-17T09:41:58.507Z,8.90
2022-11-17T09:44:31.424Z,9.00
2022-11-17T09:47:10.194Z,9.00
2022-11-17T09:49:53.698Z,9.20
2022-11-17T09:52:31.653Z,9.20
2022-11-17T09:55:00.748Z,9.30
2022-11-17T09:57:42.345Z,9.50
2022-11-17T10:00:22.446Z,9.70
2022-11-17T10:02:49.910Z,9.70
2022-11-17T10:05:19.056Z,9.70
2022-11-17T10:07:51.236Z,9.80
2022-11-17T10:10:23.002Z,9.90
2022-11-17T10:12:53.179Z,9.90
2022-11-17T10:15:23.836Z,9.90
2022-11-17T10:17:51.501Z,10.00
2022-11-17T10:20:19.197Z,10.10
2022-11-17T10:22:46.667Z,10.10
2022-11-17T10:25:35.128Z,10.10
2022-11-17T10:28:02.103Z,10.10
2022-11-17T10:30:29.321Z,10.10
2022-11-17T10:32:57.571Z,10.10
2022-11-17T10:35:26.141Z,10.20
2022-11-17T10:38:07.970Z,10.10
2022-11-17T10:40:40.455Z,10.00
2022-11-17T10:43:13.426Z,10.10
2022-11-17T10:45:47.541Z,10.10
2022-11-17T10:48:33.342Z,10.10
2022-11-17T10:51:01.599Z,10.10
2022-11-17T10:53:37.059Z,10.10
2022-11-17T10:56:22.938Z,10.10
2022-11-17T10:59:09.527Z,10.20
2022-11-17T11:01:44.214Z,10.30
2022-11-17T11:04:34.090Z,10.50
2022-11-17T11:07:20.970Z,10.50
2022-11-17T11:09:58.456Z,10.50
2022-11-17T11:12:42.029Z,10.50
2022-11-17T11:15:10.411Z,10.50
2022-11-17T11:17:37.196Z,10.50
2022-11-17T11:20:04.776Z,10.60
2022-11-17T11:22:34.845Z,10.60
2022-11-17T11:25:15.372Z,10.60
2022-11-17T11:28:06.837Z,10.60
2022-11-17T11:30:38.223Z,10.60
2022-11-17T11:33:24.017Z,10.70
2022-11-17T11:35:59.758Z,10.70
2022-11-17T11:38:35.601Z,10.80
2022-11-17T11:41:28.080Z,10.80
2022-11-17T11:44:23.169Z,10.80
2022-11-17T11:47:09.568Z,10.80
2022-11-17T11:49:43.454Z,10.90
2022-11-17T11:52:22.083Z,11.00
2022-11-17T11:54:54.611Z,11.00
2022-11-17T11:57:26.209Z,11.10
2022-11-17T12:00:20.212Z,11.00
2022-11-17T12:03:03.890Z,10.90
2022-11-17T12:05:49.416Z,10.90
2022-11-17T12:08:18.322Z,10.90
2022-11-17T12:11:23.377Z,10.90
2022-11-17T12:13:54.134Z,10.90
2022-11-17T12:16:34.938Z,10.90
2022-11-17T12:19:02.224Z,11.00
2022-11-17T12:21:29.237Z,11.00
2022-11-17T12:24:18.130Z,11.00
2022-11-17T12:26:45.041Z,11.10
2022-11-17T12:29:24.651Z,11.10
2022-11-17T12:31:59.342Z,11.30
2022-11-17T12:34:30.705Z,11.40
2022-11-17T12:37:13.156Z,11.40
2022-11-17T12:39:53.364Z,11.50
2022-11-17T12:42:20.069Z,11.60
2022-11-17T12:44:46.774Z,11.70
2022-11-17T12:47:14.007Z,11.80
2022-11-17T12:49:56.057Z,11.90
2022-11-17T12:52:38.039Z,12.00
2022-11-17T12:55:41.790Z,12.10
2022-11-17T12:58:29.911Z,12.10
2022-11-17T13:01:04.095Z,12.20
2022-11-17T13:03:39.976Z,12.30
2022-11-17T13:06:34.395Z,12.40
2022-11-17T13:09:02.496Z,12.50
2022-11-17T13:11:29.561Z,12.50
2022-11-17T13:14:15.303Z,12.40
2022-11-17T13:16:49.824Z,12.50
2022-11-17T13:19:32.858Z,12.50
2022-11-17T13:22:24.710Z,12.50
2022-11-17T13:24:53.666Z,12.60
2022-11-17T13:27:30.848Z,12.70
2022-11-17T13:30:27.302Z,12.80
2022-11-17T13:32:55.778Z,12.80
2022-11-17T13:35:35.628Z,12.90
2022-11-17T13:38:11.903Z,13.00
2022-11-17T13:40:39.692Z,13.00
2022-11-17T13:43:08.226Z,13.00
2022-11-17T13:45:35.564Z,13.00
2022-11-17T13:48:02.341Z,13.00
2022-11-17T13:50:31.931Z,13.10
2022-11-17T13:53:03.459Z,13.10
2022-11-17T13:55:30.382Z,13.20
2022-11-17T13:57:58.560Z,13.20
2022-11-17T14:00:25.435Z,13.20
2022-11-17T14:02:59.575Z,13.10
2022-11-17T14:05:27.617Z,13.20
2022-11-17T14:07:57.008Z,13.20
2022-11-17T14:10:28.067Z,13.30
2022-11-17T14:13:01.128Z,13.30
2022-11-17T14:15:30.384Z,13.40
2022-11-17T14:17:58.719Z,13.50
2022-11-17T14:20:25.640Z,13.60
2022-11-17T14:23:11.124Z,13.90
2022-11-17T14:25:42.779Z,13.80
2022-11-17T14:28:20.723Z,13.80
2022-11-17T14:30:48.116Z,13.90
2022-11-17T14:33:14.888Z,13.80
2022-11-17T14:35:42.074Z,13.70
2022-11-17T14:38:16.432Z,14.00
2022-11-17T14:40:43.236Z,14.10
2022-11-17T14:43:10.215Z,14.30
2022-11-17T14:45:36.956Z,14.00
2022-11-17T14:48:06.086Z,13.70
2022-11-17T14:50:33.433Z,13.40
2022-11-17T14:53:01.098Z,13.50
2022-11-17T14:55:27.908Z,13.40
2022-11-17T14:57:54.679Z,13.30
2022-11-17T15:00:22.242Z,13.20
2022-11-17T15:02:49.015Z,13.10
2022-11-17T15:05:15.977Z,13.00
2022-11-17T15:07:43.506Z,12.90
2022-11-17T15:10:11.213Z,12.80
2022-11-17T15:12:38.190Z,12.70
2022-11-17T15:15:05.518Z,12.70
2022-11-17T15:17:33.052Z,12.60
2022-11-17T15:19:59.867Z,12.50
2022-11-17T15:22:26.820Z,12.50
2022-11-17T15:24:53.783Z,12.60
2022-11-17T15:27:20.579Z,12.70
2022-11-17T15:29:47.445Z,12.70
2022-11-17T15:32:14.167Z,12.80
2022-11-17T15:34:40.968Z,12.70
2022-11-17T15:37:07.942Z,12.60
2022-11-17T15:39:35.046Z,12.60
2022-11-17T15:42:01.751Z,12.50
2022-11-17T15:44:29.341Z,12.40
2022-11-17T15:46:56.117Z,12.30
2022-11-17T15:49:22.903Z,12.20
2022-11-17T15:51:50.181Z,12.10
2022-11-17T15:54:20.612Z,12.00
2022-11-17T15:56:47.895Z,11.90
2022-11-17T15:59:14.983Z,11.80
2022-11-17T16:01:42.061Z,11.70
2022-11-17T16:04:10.605Z,11.60
2022-11-17T16:06:39.074Z,11.60
2022-11-17T16:09:06.595Z,11.50
2022-11-17T16:11:34.556Z,11.40
2022-11-17T16:14:01.698Z,11.40
2022-11-17T16:16:33.741Z,11.40
2022-11-17T16:19:01.113Z,11.30
2022-11-17T16:21:28.328Z,11.30
2022-11-17T16:23:56.611Z,11.20
2022-11-17T16:26:24.701Z,11.20
2022-11-17T16:28:57.716Z,11.10
2022-11-17T16:31:25.602Z,11.10
2022-11-17T16:33:57.276Z,11.10
2022-11-17T16:36:27.302Z,11.10
2022-11-17T16:39:01.579Z,11.10
2022-11-17T16:41:33.219Z,11.00
2022-11-17T16:44:00.581Z,11.00
2022-11-17T16:46:31.327Z,11.00
2022-11-17T16:49:02.728Z,11.00
2022-11-17T16:51:29.482Z,11.00
2022-11-17T16:53:57.755Z,11.10
2022-11-17T16:56:24.687Z,11.10
2022-11-17T16:58:51.854Z,11.10
2022-11-17T17:01:20.408Z,11.10
2022-11-17T17:03:47.750Z,11.20
2022-11-17T17:06:16.071Z,11.10
2022-11-17T17:08:42.831Z,11.10
2022-11-17T17:11:11.261Z,11.10
2022-11-17T17:13:38.238Z,11.10
2022-11-17T17:16:12.344Z,11.00
2022-11-17T17:18:39.468Z,11.00
2022-11-17T17:21:06.505Z,11.00
2022-11-17T17:23:34.243Z,10.90
2022-11-17T17:26:05.664Z,10.90
2022-11-17T17:28:33.476Z,10.90
2022-11-17T17:31:00.572Z,10.80
2022-11-17T17:33:27.689Z,10.80
2022-11-17T17:35:54.451Z,10.70
2022-11-17T17:38:21.233Z,10.70
2022-11-17T17:40:48.154Z,10.60
2022-11-17T17:43:15.110Z,10.60
2022-11-17T17:45:42.120Z,10.60
2022-11-17T17:48:09.448Z,10.60
2022-11-17T17:50:36.417Z,10.50
2022-11-17T17:53:03.380Z,10.50
2022-11-17T17:55:31.063Z,10.40
2022-11-17T17:57:58.002Z,10.40
2022-11-17T18:00:25.464Z,10.40
2022-11-17T18:02:52.258Z,10.30
2022-11-17T18:05:22.624Z,10.30
2022-11-17T18:07:49.920Z,10.30
2022-11-17T18:10:17.266Z,10.20
2022-11-17T18:12:44.051Z,10.20
2022-11-17T18:15:11.442Z,10.20
2022-11-17T18:17:38.215Z,10.20
2022-11-17T18:20:05.529Z,10.10
2022-11-17T18:22:32.225Z,10.10
2022-11-17T18:24:58.917Z,10.10
2022-11-17T18:27:26.355Z,10.10
2022-11-17T18:29:53.160Z,10.10
2022-11-17T18:32:19.948Z,10.10
2022-11-17T18:34:48.541Z,10.00
2022-11-17T18:37:15.421Z,10.00
2022-11-17T18:39:42.285Z,10.00
2022-11-17T18:42:09.191Z,9.90
2022-11-17T18:44:36.037Z,9.90
2022-11-17T18:47:03.365Z,9.90
2022-11-17T18:49:30.855Z,9.90
2022-11-17T18:51:57.692Z,9.90
2022-11-17T18:54:25.122Z,9.80
2022-11-17T18:56:52.454Z,9.80
2022-11-17T18:59:19.566Z,9.90
2022-11-17T19:01:46.465Z,9.80
2022-11-17T19:04:13.795Z,9.80
2022-11-17T19:06:40.803Z,9.80
2022-11-17T19:09:08.397Z,9.80
2022-11-17T19:11:35.296Z,9.70
2022-11-17T19:14:02.455Z,9.70
2022-11-17T19:16:29.414Z,9.70
2022-11-17T19:18:56.665Z,9.60
2022-11-17T19:21:26.925Z,9.60
2022-11-17T19:23:54.797Z,9.60
2022-11-17T19:26:28.383Z,9.50
2022-11-17T19:28:56.505Z,9.50
2022-11-17T19:31:23.381Z,9.50
2022-11-17T19:33:50.581Z,9.50
2022-11-17T19:36:20.597Z,9.50
2022-11-17T19:38:51.395Z,9.40
2022-11-17T19:41:22.971Z,9.40
2022-11-17T19:43:53.255Z,9.40
2022-11-17T19:46:20.221Z,9.40
2022-11-17T19:48:47.560Z,9.30
2022-11-17T19:51:29.280Z,9.30
2022-11-17T19:53:57.261Z,9.30
2022-11-17T19:56:24.506Z,9.30
2022-11-17T19:58:51.275Z,9.30
2022-11-17T20:01:19.830Z,9.30
2022-11-17T20:03:46.890Z,9.30
2022-11-17T20:06:15.151Z,9.20
2022-11-17T20:08:42.338Z,9.20
2022-11-17T20:11:16.565Z,9.20
2022-11-17T20:13:43.601Z,9.20
2022-11-17T20:16:20.054Z,9.20
2022-11-17T20:18:49.891Z,9.20
2022-11-17T20:21:16.950Z,9.20
2022-11-17T20:23:43.860Z,9.20
2022-11-17T20:26:15.354Z,9.20
2022-11-17T20:28:42.421Z,9.20
2022-11-17T20:31:13.501Z,9.20
2022-11-17T20:33:42.474Z,9.20
2022-11-17T20:36:11.302Z,9.20
2022-11-17T20:38:38.057Z,9.20
2022-11-17T20:41:05.309Z,9.10
2022-11-17T20:43:32.215Z,9.10
2022-11-17T20:45:59.090Z,9.10
2022-11-17T20:48:26.127Z,9.10
2022-11-17T20:51:14.220Z,9.10
2022-11-17T20:53:41.135Z,9.00
2022-11-17T20:56:09.065Z,9.00
2022-11-17T20:58:36.026Z,9.00
2022-11-17T21:01:12.869Z,9.00
2022-11-17T21:03:40.083Z,9.00
2022-11-17T21:06:07.180Z,9.00
2022-11-17T21:08:36.918Z,8.90
2022-11-17T21:11:05.572Z,8.90
2022-11-17T21:13:33.441Z,8.90
2022-11-17T21:16:03.186Z,8.90
2022-11-17T21:18:30.078Z,8.90
2022-11-17T21:21:08.478Z,8.90
2022-11-17T21:23:36.656Z,8.90
2022-11-17T21:26:07.338Z,8.90
2022-11-17T21:28:38.247Z,8.90
2022-11-17T21:31:07.650Z,8.90
2022-11-17T21:33:35.506Z,8.90
2022-11-17T21:36:16.098Z,8.90
2022-11-17T21:38:44.448Z,8.90
2022-11-17T21:41:12.654Z,8.90
2022-11-17T21:43:40.314Z,8.90
2022-11-17T21:46:08.552Z,9.00
2022-11-17T21:48:36.517Z,9.00
2022-11-17T21:51:04.333Z,9.00
2022-11-17T21:53:31.039Z,9.00
2022-11-17T21:56:05.451Z,9.00
2022-11-17T21:58:32.512Z,8.90
2022-11-17T22:01:05.721Z,8.90
2022-11-17T22:03:32.457Z,8.90
2022-11-17T22:06:19.086Z,8.90
2022-11-17T22:08:46.138Z,8.80
2022-11-17T22:11:15.306Z,8.80
2022-11-17T22:13:42.298Z,8.80
2022-11-17T22:16:15.144Z,8.80
2022-11-17T22:18:42.066Z,8.80
2022-11-17T22:21:09.172Z,8.80
2022-11-17T22:23:36.007Z,8.80
2022-11-17T22:26:04.671Z,8.80
2022-11-17T22:28:31.583Z,8.80
2022-11-17T22:30:58.470Z,8.90
2022-11-17T22:33:25.216Z,8.90
2022-11-17T22:35:52.021Z,8.90
2022-11-17T22:38:18.870Z,8.90
2022-11-17T22:40:45.616Z,8.90
2022-11-17T22:43:15.196Z,8.90
2022-11-17T22:45:42.961Z,9.00
2022-11-17T22:48:09.785Z,9.00
2022-11-17T22:50:36.597Z,9.00
2022-11-17T22:53:03.442Z,9.00
2022-11-17T22:55:32.853Z,9.00
2022-11-17T22:57:59.740Z,9.00
2022-11-17T23:00:26.460Z,9.00
2022-11-17T23:02:53.134Z,9.10
2022-11-17T23:05:20.329Z,9.10
2022-11-17T23:07:47.009Z,9.10
2022-11-17T23:10:13.757Z,9.10
2022-11-17T23:12:40.634Z,9.10
2022-11-17T23:15:07.857Z,9.10
2022-11-17T23:17:34.801Z,9.20
2022-11-17T23:20:01.706Z,9.10
2022-11-17T23:22:28.542Z,9.20
2022-11-17T23:24:55.210Z,9.20
2022-11-17T23:27:22.056Z,9.20
2022-11-17T23:29:48.886Z,9.20
2022-11-17T23:32:15.586Z,9.20
2022-11-17T23:34:42.261Z,9.20
2022-11-17T23:37:09.032Z,9.20
2022-11-17T23:39:35.756Z,9.20
2022-11-17T23:42:02.454Z,9.10
2022-11-17T23:44:29.230Z,9.10
2022-11-17T23:46:56.073Z,9.20
2022-11-17T23:49:23.186Z,9.20
2022-11-17T23:51:49.889Z,9.20
2022-11-17T23:54:16.607Z,9.20
2022-11-17T23:56:43.425Z,9.20
2022-11-17T23:59:10.167Z,9.20
